sensor_id;sensor_type;location;lat;lon;timestamp;temperature;humidity
4090;DHT22;2059;48.538;12.146;2023-04-15T00:00:42;8.20;99.90
4090;DHT22;2059;48.538;12.146;2023-04-15T00:05:46;8.00;99.90
4090;DHT22;2059;48.538;12.146;2023-04-15T00:10:48;8.30;99.90
4090;DHT22;2059;48.538;12.146;2023-04-15T00:15:50;8.20;99.90
4090;DHT22;2059;48.538;12.146;2023-04-15T00:20:53;7.80;99.90
4090;DHT22;2059;48.538;12.146;2023-04-15T00:25:55;8.10;99.90
4090;DHT22;2059;48.538;12.146;2023-04-15T00:30:57;8.20;99.90
4090;DHT22;2059;48.538;12.146;2023-04-15T00:36:00;8.00;99.90
4090;DHT22;2059;48.538;12.146;2023-04-15T00:41:02;7.80;99.90
4090;DHT22;2059;48.538;12.146;2023-04-15T00:46:05;7.90;99.90
4090;DHT22;2059;48.538;12.146;2023-04-15T00:51:09;8.00;99.90
4090;DHT22;2059;48.538;12.146;2023-04-15T00:56:11;7.80;99.90
4090;DHT22;2059;48.538;12.146;2023-04-15T01:01:12;7.90;99.90
4090;DHT22;2059;48.538;12.146;2023-04-15T01:06:17;7.90;99.90
4090;DHT22;2059;48.538;12.146;2023-04-15T01:11:19;8.00;99.90
4090;DHT22;2059;48.538;12.146;2023-04-15T01:16:21;7.70;99.90
4090;DHT22;2059;48.538;12.146;2023-04-15T01:21:24;7.60;99.90
4090;DHT22;2059;48.538;12.146;2023-04-15T01:26:29;7.60;99.90
4090;DHT22;2059;48.538;12.146;2023-04-15T01:31:30;7.70;99.90
4090;DHT22;2059;48.538;12.146;2023-04-15T01:36:33;7.50;99.90
4090;DHT22;2059;48.538;12.146;2023-04-15T01:41:36;7.70;99.90
4090;DHT22;2059;48.538;12.146;2023-04-15T01:46:38;7.70;99.90
4090;DHT22;2059;48.538;12.146;2023-04-15T01:51:40;8.00;99.90
4090;DHT22;2059;48.538;12.146;2023-04-15T01:56:43;8.00;99.90
4090;DHT22;2059;48.538;12.146;2023-04-15T02:01:45;8.10;99.90
4090;DHT22;2059;48.538;12.146;2023-04-15T02:06:46;8.10;99.90
4090;DHT22;2059;48.538;12.146;2023-04-15T02:11:50;8.00;99.90
4090;DHT22;2059;48.538;12.146;2023-04-15T02:16:52;8.20;99.90
4090;DHT22;2059;48.538;12.146;2023-04-15T02:21:54;8.10;99.90
4090;DHT22;2059;48.538;12.146;2023-04-15T02:26:57;8.30;99.90
4090;DHT22;2059;48.538;12.146;2023-04-15T02:31:59;8.30;99.90
4090;DHT22;2059;48.538;12.146;2023-04-15T02:37:00;8.30;99.90
4090;DHT22;2059;48.538;12.146;2023-04-15T02:42:04;8.30;99.90
4090;DHT22;2059;48.538;12.146;2023-04-15T02:47:06;8.40;99.90
4090;DHT22;2059;48.538;12.146;2023-04-15T02:52:08;8.30;99.90
4090;DHT22;2059;48.538;12.146;2023-04-15T02:57:11;8.20;99.90
4090;DHT22;2059;48.538;12.146;2023-04-15T03:02:13;8.20;99.90
4090;DHT22;2059;48.538;12.146;2023-04-15T03:07:17;8.10;99.90
4090;DHT22;2059;48.538;12.146;2023-04-15T03:12:20;7.90;99.90
4090;DHT22;2059;48.538;12.146;2023-04-15T03:17:22;7.90;99.90
4090;DHT22;2059;48.538;12.146;2023-04-15T03:22:24;8.00;99.90
4090;DHT22;2059;48.538;12.146;2023-04-15T03:27:27;8.00;99.90
4090;DHT22;2059;48.538;12.146;2023-04-15T03:32:29;8.20;99.90
4090;DHT22;2059;48.538;12.146;2023-04-15T03:37:31;7.90;99.90
4090;DHT22;2059;48.538;12.146;2023-04-15T03:42:34;7.90;99.90
4090;DHT22;2059;48.538;12.146;2023-04-15T03:47:35;7.90;99.90
4090;DHT22;2059;48.538;12.146;2023-04-15T03:52:37;8.10;99.90
4090;DHT22;2059;48.538;12.146;2023-04-15T03:57:40;7.80;99.90
4090;DHT22;2059;48.538;12.146;2023-04-15T04:02:42;7.80;99.90
4090;DHT22;2059;48.538;12.146;2023-04-15T04:07:45;7.50;99.90
4090;DHT22;2059;48.538;12.146;2023-04-15T04:12:48;7.80;99.90
4090;DHT22;2059;48.538;12.146;2023-04-15T04:17:50;7.60;99.90
4090;DHT22;2059;48.538;12.146;2023-04-15T04:22:51;8.00;99.90
4090;DHT22;2059;48.538;12.146;2023-04-15T04:27:55;7.70;99.90
4090;DHT22;2059;48.538;12.146;2023-04-15T04:32:56;7.50;99.90
4090;DHT22;2059;48.538;12.146;2023-04-15T04:37:58;7.50;99.90
4090;DHT22;2059;48.538;12.146;2023-04-15T04:43:01;7.40;99.90
4090;DHT22;2059;48.538;12.146;2023-04-15T04:48:03;7.40;99.90
4090;DHT22;2059;48.538;12.146;2023-04-15T04:53:08;7.10;99.90
4090;DHT22;2059;48.538;12.146;2023-04-15T04:58:11;7.10;99.90
4090;DHT22;2059;48.538;12.146;2023-04-15T05:03:13;7.20;99.90
4090;DHT22;2059;48.538;12.146;2023-04-15T05:08:15;7.20;99.90
4090;DHT22;2059;48.538;12.146;2023-04-15T05:13:18;7.40;99.90
4090;DHT22;2059;48.538;12.146;2023-04-15T05:18:21;7.40;99.90
4090;DHT22;2059;48.538;12.146;2023-04-15T05:23:22;7.50;99.90
4090;DHT22;2059;48.538;12.146;2023-04-15T05:28:25;7.50;99.90
4090;DHT22;2059;48.538;12.146;2023-04-15T05:33:27;7.70;99.90
4090;DHT22;2059;48.538;12.146;2023-04-15T05:38:29;7.90;99.90
4090;DHT22;2059;48.538;12.146;2023-04-15T05:43:32;7.80;99.90
4090;DHT22;2059;48.538;12.146;2023-04-15T05:48:34;8.10;99.90
4090;DHT22;2059;48.538;12.146;2023-04-15T05:53:36;8.20;99.90
4090;DHT22;2059;48.538;12.146;2023-04-15T05:58:39;8.20;99.90
4090;DHT22;2059;48.538;12.146;2023-04-15T06:03:42;8.30;99.90
4090;DHT22;2059;48.538;12.146;2023-04-15T06:08:44;8.50;99.90
4090;DHT22;2059;48.538;12.146;2023-04-15T06:13:47;8.20;99.90
4090;DHT22;2059;48.538;12.146;2023-04-15T06:18:49;8.40;99.90
4090;DHT22;2059;48.538;12.146;2023-04-15T06:23:51;8.50;99.90
4090;DHT22;2059;48.538;12.146;2023-04-15T06:28:54;8.60;99.90
4090;DHT22;2059;48.538;12.146;2023-04-15T06:33:55;8.50;99.90
4090;DHT22;2059;48.538;12.146;2023-04-15T06:38:57;8.40;99.90
4090;DHT22;2059;48.538;12.146;2023-04-15T06:44:00;8.60;99.90
4090;DHT22;2059;48.538;12.146;2023-04-15T06:49:02;8.80;99.90
4090;DHT22;2059;48.538;12.146;2023-04-15T06:54:04;9.10;99.90
4090;DHT22;2059;48.538;12.146;2023-04-15T06:59:08;8.60;99.90
4090;DHT22;2059;48.538;12.146;2023-04-15T07:04:09;8.60;99.90
4090;DHT22;2059;48.538;12.146;2023-04-15T07:09:12;8.80;99.90
4090;DHT22;2059;48.538;12.146;2023-04-15T07:14:15;9.20;99.90
4090;DHT22;2059;48.538;12.146;2023-04-15T07:19:16;9.00;99.90
4090;DHT22;2059;48.538;12.146;2023-04-15T07:24:18;9.00;99.90
4090;DHT22;2059;48.538;12.146;2023-04-15T07:29:22;8.90;99.90
4090;DHT22;2059;48.538;12.146;2023-04-15T07:34:23;9.00;99.90
4090;DHT22;2059;48.538;12.146;2023-04-15T07:39:25;8.70;99.90
4090;DHT22;2059;48.538;12.146;2023-04-15T07:44:29;9.00;99.90
4090;DHT22;2059;48.538;12.146;2023-04-15T07:49:31;8.80;99.90
4090;DHT22;2059;48.538;12.146;2023-04-15T07:54:32;8.60;99.90
4090;DHT22;2059;48.538;12.146;2023-04-15T07:59:36;8.90;99.90
4090;DHT22;2059;48.538;12.146;2023-04-15T08:04:37;8.80;99.90
4090;DHT22;2059;48.538;12.146;2023-04-15T08:09:39;9.20;99.90
4090;DHT22;2059;48.538;12.146;2023-04-15T08:14:43;9.60;99.90
4090;DHT22;2059;48.538;12.146;2023-04-15T08:19:44;9.90;99.90
4090;DHT22;2059;48.538;12.146;2023-04-15T08:24:47;10.00;99.90
4090;DHT22;2059;48.538;12.146;2023-04-15T08:29:50;9.70;99.90
4090;DHT22;2059;48.538;12.146;2023-04-15T08:34:52;9.70;99.90
4090;DHT22;2059;48.538;12.146;2023-04-15T08:39:54;9.30;99.90
4090;DHT22;2059;48.538;12.146;2023-04-15T08:44:58;9.50;99.90
4090;DHT22;2059;48.538;12.146;2023-04-15T08:50:03;9.40;99.90
4090;DHT22;2059;48.538;12.146;2023-04-15T08:55:07;9.50;99.90
4090;DHT22;2059;48.538;12.146;2023-04-15T09:00:12;9.90;99.90
4090;DHT22;2059;48.538;12.146;2023-04-15T09:05:14;9.20;99.90
4090;DHT22;2059;48.538;12.146;2023-04-15T09:10:17;9.40;99.90
4090;DHT22;2059;48.538;12.146;2023-04-15T09:15:20;9.20;99.90
4090;DHT22;2059;48.538;12.146;2023-04-15T09:20:23;9.30;99.90
4090;DHT22;2059;48.538;12.146;2023-04-15T09:25:26;9.50;99.90
4090;DHT22;2059;48.538;12.146;2023-04-15T09:30:29;9.40;99.90
4090;DHT22;2059;48.538;12.146;2023-04-15T09:35:32;9.50;99.90
4090;DHT22;2059;48.538;12.146;2023-04-15T09:40:34;9.90;99.90
4090;DHT22;2059;48.538;12.146;2023-04-15T09:45:38;10.10;99.90
4090;DHT22;2059;48.538;12.146;2023-04-15T09:50:48;10.00;99.90
4090;DHT22;2059;48.538;12.146;2023-04-15T09:55:50;9.70;99.90
4090;DHT22;2059;48.538;12.146;2023-04-15T10:00:55;9.20;99.90
4090;DHT22;2059;48.538;12.146;2023-04-15T10:05:59;9.50;99.90
4090;DHT22;2059;48.538;12.146;2023-04-15T10:11:01;9.90;99.90
4090;DHT22;2059;48.538;12.146;2023-04-15T10:16:13;9.40;99.90
4090;DHT22;2059;48.538;12.146;2023-04-15T10:21:15;9.30;99.90
4090;DHT22;2059;48.538;12.146;2023-04-15T10:26:18;9.30;99.90
4090;DHT22;2059;48.538;12.146;2023-04-15T10:31:22;9.40;99.90
4090;DHT22;2059;48.538;12.146;2023-04-15T10:36:24;9.40;99.90
4090;DHT22;2059;48.538;12.146;2023-04-15T10:41:27;9.30;99.90
4090;DHT22;2059;48.538;12.146;2023-04-15T10:46:38;9.50;99.90
4090;DHT22;2059;48.538;12.146;2023-04-15T10:51:42;9.70;99.90
4090;DHT22;2059;48.538;12.146;2023-04-15T11:07:05;10.10;99.90
4090;DHT22;2059;48.538;12.146;2023-04-15T11:12:07;10.00;99.90
4090;DHT22;2059;48.538;12.146;2023-04-15T11:17:09;10.10;99.90
4090;DHT22;2059;48.538;12.146;2023-04-15T11:22:13;10.50;99.90
4090;DHT22;2059;48.538;12.146;2023-04-15T11:27:20;10.70;99.90
4090;DHT22;2059;48.538;12.146;2023-04-15T11:32:22;11.10;99.90
4090;DHT22;2059;48.538;12.146;2023-04-15T11:37:29;11.20;99.90
4090;DHT22;2059;48.538;12.146;2023-04-15T11:42:33;11.10;99.90
4090;DHT22;2059;48.538;12.146;2023-04-15T11:47:34;11.30;99.90
4090;DHT22;2059;48.538;12.146;2023-04-15T11:52:38;11.30;99.90
4090;DHT22;2059;48.538;12.146;2023-04-15T11:57:40;11.10;99.90
4090;DHT22;2059;48.538;12.146;2023-04-15T12:02:42;11.20;99.90
4090;DHT22;2059;48.538;12.146;2023-04-15T12:08:00;10.90;99.90
4090;DHT22;2059;48.538;12.146;2023-04-15T12:13:05;11.10;99.90
4090;DHT22;2059;48.538;12.146;2023-04-15T12:18:16;10.50;99.90
4090;DHT22;2059;48.538;12.146;2023-04-15T12:23:19;11.00;99.90
4090;DHT22;2059;48.538;12.146;2023-04-15T12:28:21;11.00;99.90
4090;DHT22;2059;48.538;12.146;2023-04-15T12:33:26;10.80;99.90
4090;DHT22;2059;48.538;12.146;2023-04-15T12:38:34;11.10;99.90
4090;DHT22;2059;48.538;12.146;2023-04-15T12:43:36;11.10;99.90
4090;DHT22;2059;48.538;12.146;2023-04-15T12:48:38;11.60;99.90
4090;DHT22;2059;48.538;12.146;2023-04-15T12:53:42;12.00;99.90
4090;DHT22;2059;48.538;12.146;2023-04-15T12:58:43;11.80;99.90
4090;DHT22;2059;48.538;12.146;2023-04-15T13:03:45;11.60;99.90
4090;DHT22;2059;48.538;12.146;2023-04-15T13:08:49;11.50;99.90
4090;DHT22;2059;48.538;12.146;2023-04-15T13:13:51;11.20;99.90
4090;DHT22;2059;48.538;12.146;2023-04-15T13:18:52;11.00;99.90
4090;DHT22;2059;48.538;12.146;2023-04-15T13:23:56;11.20;99.90
4090;DHT22;2059;48.538;12.146;2023-04-15T13:28:58;11.70;99.90
4090;DHT22;2059;48.538;12.146;2023-04-15T13:34:00;11.80;99.90
4090;DHT22;2059;48.538;12.146;2023-04-15T13:39:03;11.70;99.90
4090;DHT22;2059;48.538;12.146;2023-04-15T13:44:05;12.10;99.50
4090;DHT22;2059;48.538;12.146;2023-04-15T13:49:07;12.50;98.60
4090;DHT22;2059;48.538;12.146;2023-04-15T13:54:10;12.40;97.30
4090;DHT22;2059;48.538;12.146;2023-04-15T13:59:12;12.10;97.90
4090;DHT22;2059;48.538;12.146;2023-04-15T14:04:15;12.00;97.60
4090;DHT22;2059;48.538;12.146;2023-04-15T14:09:21;11.90;97.60
4090;DHT22;2059;48.538;12.146;2023-04-15T14:14:23;11.70;97.80
4090;DHT22;2059;48.538;12.146;2023-04-15T14:19:25;11.70;98.40
4090;DHT22;2059;48.538;12.146;2023-04-15T14:24:29;11.90;97.90
4090;DHT22;2059;48.538;12.146;2023-04-15T14:29:37;12.00;97.30
4090;DHT22;2059;48.538;12.146;2023-04-15T14:34:39;11.30;97.50
4090;DHT22;2059;48.538;12.146;2023-04-15T14:39:42;11.20;98.30
4090;DHT22;2059;48.538;12.146;2023-04-15T14:44:45;11.20;98.30
4090;DHT22;2059;48.538;12.146;2023-04-15T14:49:47;10.80;98.90
4090;DHT22;2059;48.538;12.146;2023-04-15T14:54:50;10.70;98.60
4090;DHT22;2059;48.538;12.146;2023-04-15T14:59:52;10.90;98.20
4090;DHT22;2059;48.538;12.146;2023-04-15T15:04:56;10.50;99.30
4090;DHT22;2059;48.538;12.146;2023-04-15T15:10:00;10.70;99.60
4090;DHT22;2059;48.538;12.146;2023-04-15T15:15:03;10.30;99.40
4090;DHT22;2059;48.538;12.146;2023-04-15T15:20:05;10.30;99.40
4090;DHT22;2059;48.538;12.146;2023-04-15T15:25:09;10.60;99.30
4090;DHT22;2059;48.538;12.146;2023-04-15T15:30:11;10.60;99.90
4090;DHT22;2059;48.538;12.146;2023-04-15T15:35:13;10.90;99.40
4090;DHT22;2059;48.538;12.146;2023-04-15T15:40:17;10.80;99.00
4090;DHT22;2059;48.538;12.146;2023-04-15T15:45:18;10.70;99.50
4090;DHT22;2059;48.538;12.146;2023-04-15T15:50:20;10.50;99.50
4090;DHT22;2059;48.538;12.146;2023-04-15T15:55:23;10.90;99.40
4090;DHT22;2059;48.538;12.146;2023-04-15T16:00:26;10.90;98.80
4090;DHT22;2059;48.538;12.146;2023-04-15T16:05:28;10.50;99.20
4090;DHT22;2059;48.538;12.146;2023-04-15T16:10:31;10.40;99.30
4090;DHT22;2059;48.538;12.146;2023-04-15T16:15:33;10.40;99.90
4090;DHT22;2059;48.538;12.146;2023-04-15T16:20:35;10.40;99.90
4090;DHT22;2059;48.538;12.146;2023-04-15T16:25:38;10.60;99.90
4090;DHT22;2059;48.538;12.146;2023-04-15T16:30:41;10.40;99.80
4090;DHT22;2059;48.538;12.146;2023-04-15T16:35:43;10.40;99.90
4090;DHT22;2059;48.538;12.146;2023-04-15T16:40:46;10.00;99.90
4090;DHT22;2059;48.538;12.146;2023-04-15T16:45:48;10.00;99.90
4090;DHT22;2059;48.538;12.146;2023-04-15T16:50:50;9.80;99.90
4090;DHT22;2059;48.538;12.146;2023-04-15T16:55:53;9.90;99.90
4090;DHT22;2059;48.538;12.146;2023-04-15T17:00:55;9.80;99.90
4090;DHT22;2059;48.538;12.146;2023-04-15T17:05:56;9.90;99.90
4090;DHT22;2059;48.538;12.146;2023-04-15T17:11:00;10.00;99.90
4090;DHT22;2059;48.538;12.146;2023-04-15T17:16:01;10.00;99.90
4090;DHT22;2059;48.538;12.146;2023-04-15T17:21:04;9.70;99.90
4090;DHT22;2059;48.538;12.146;2023-04-15T17:26:07;9.80;99.90
4090;DHT22;2059;48.538;12.146;2023-04-15T17:31:09;10.00;99.90
4090;DHT22;2059;48.538;12.146;2023-04-15T17:36:11;10.00;99.90
4090;DHT22;2059;48.538;12.146;2023-04-15T17:41:14;10.00;99.90
4090;DHT22;2059;48.538;12.146;2023-04-15T17:46:16;10.00;99.90
4090;DHT22;2059;48.538;12.146;2023-04-15T17:51:18;9.80;99.90
4090;DHT22;2059;48.538;12.146;2023-04-15T17:56:22;9.90;99.90
4090;DHT22;2059;48.538;12.146;2023-04-15T18:01:24;9.70;99.90
4090;DHT22;2059;48.538;12.146;2023-04-15T18:06:26;9.50;99.90
4090;DHT22;2059;48.538;12.146;2023-04-15T18:11:30;9.40;99.90
4090;DHT22;2059;48.538;12.146;2023-04-15T18:16:33;9.50;99.90
4090;DHT22;2059;48.538;12.146;2023-04-15T18:21:34;9.60;99.90
4090;DHT22;2059;48.538;12.146;2023-04-15T18:26:37;9.60;99.90
4090;DHT22;2059;48.538;12.146;2023-04-15T18:31:39;9.30;99.90
4090;DHT22;2059;48.538;12.146;2023-04-15T18:36:41;9.30;99.90
4090;DHT22;2059;48.538;12.146;2023-04-15T18:41:44;9.50;99.90
4090;DHT22;2059;48.538;12.146;2023-04-15T18:46:47;9.60;99.90
4090;DHT22;2059;48.538;12.146;2023-04-15T18:51:49;9.20;99.90
4090;DHT22;2059;48.538;12.146;2023-04-15T18:56:52;9.10;99.90
4090;DHT22;2059;48.538;12.146;2023-04-15T19:01:54;9.10;99.90
4090;DHT22;2059;48.538;12.146;2023-04-15T19:06:56;9.00;99.90
4090;DHT22;2059;48.538;12.146;2023-04-15T19:11:59;9.00;99.90
4090;DHT22;2059;48.538;12.146;2023-04-15T19:17:01;8.70;99.90
4090;DHT22;2059;48.538;12.146;2023-04-15T19:22:03;8.80;99.90
4090;DHT22;2059;48.538;12.146;2023-04-15T19:27:07;8.40;99.90
4090;DHT22;2059;48.538;12.146;2023-04-15T19:32:09;8.50;99.90
4090;DHT22;2059;48.538;12.146;2023-04-15T19:37:13;8.70;99.90
4090;DHT22;2059;48.538;12.146;2023-04-15T19:42:16;8.60;99.90
4090;DHT22;2059;48.538;12.146;2023-04-15T19:47:18;8.50;99.90
4090;DHT22;2059;48.538;12.146;2023-04-15T19:52:20;8.70;99.90
4090;DHT22;2059;48.538;12.146;2023-04-15T19:57:23;8.40;99.90
4090;DHT22;2059;48.538;12.146;2023-04-15T20:02:25;8.30;99.90
4090;DHT22;2059;48.538;12.146;2023-04-15T20:07:29;8.60;99.90
4090;DHT22;2059;48.538;12.146;2023-04-15T20:12:32;8.60;99.90
4090;DHT22;2059;48.538;12.146;2023-04-15T20:17:35;8.40;99.90
4090;DHT22;2059;48.538;12.146;2023-04-15T20:22:37;8.60;99.90
4090;DHT22;2059;48.538;12.146;2023-04-15T23:20:48;8.10;99.90
4090;DHT22;2059;48.538;12.146;2023-04-15T23:25:50;8.20;99.90
4090;DHT22;2059;48.538;12.146;2023-04-15T23:30:52;8.10;99.90
4090;DHT22;2059;48.538;12.146;2023-04-15T23:35:55;8.30;99.90
4090;DHT22;2059;48.538;12.146;2023-04-15T23:40:57;8.40;99.90
